»·PEaware :: N1169D KPSP-KHHR

N1169D :: KPSP-KHHR

FLIGHT INFORMATION

Flight Status: Arrived
Operator: Privately registered:
United States
More flights under this callsign
Pilot: Sean L. (31034)
Aircraft: CIRRUS SR-22
(SR22)
More flights by this aircraft type
Origin: KPSP Palm Springs Intl
United States
Destination: KHHR Northrop/Hawthorne Mun
United States
More flights between these airports :: More routes between these airports
Route:
File this flight plan on PilotEdge
Remarks:
Altitude:
(Current/Filed)
0ft
Speed:
(Current/Filed)
0kts
Departed: 05-Jan-21 02:22 PM
Arrived: 05-Jan-21 03:01 PM
Distance/Time
Traveled:
91nm/0:39
Distance/Time
To Go:
Arrived

Flight Plot

Page will automatically refresh every two minutes.

Flight plan parsing failed; only flown route is shown


Map Options




Map Legend


Flown Route
Filed Route
Departure Airport
Arrival Airport
Navaid (VOR, NDB)
Fix

Horizontal Profiles

Position Reports

Time Latitude Longitude Heading Altitude Ground
Speed
05-Jan-21 14:09 33.820967 -116.496101 51 394ft 0kts
05-Jan-21 14:10 33.820967 -116.496101 51 394ft 0kts
05-Jan-21 14:11 33.820967 -116.496101 51 394ft 0kts
05-Jan-21 14:12 33.820967 -116.496101 51 394ft 0kts
05-Jan-21 14:13 33.820967 -116.496101 51 394ft 0kts
05-Jan-21 14:14 33.821166 -116.496093 78 394ft 3kts
05-Jan-21 14:16 33.821146 -116.495928 135 393ft 0kts
05-Jan-21 14:17 33.820288 -116.495559 249 391ft 3kts
05-Jan-21 14:18 33.819344 -116.496889 232 400ft 0kts
05-Jan-21 14:19 33.819343 -116.496892 231 400ft 0kts
05-Jan-21 14:20 33.819245 -116.497046 238 400ft 0kts
05-Jan-21 14:21 33.819043 -116.497413 241 400ft 15kts
05-Jan-21 14:22 33.836330 -116.514413 318 887ft 136kts
05-Jan-21 14:23 33.861793 -116.537901 317 2995ft 115kts
05-Jan-21 14:24 33.884998 -116.567891 302 4799ft 120kts
05-Jan-21 14:25 33.892127 -116.608643 278 6522ft 130kts
05-Jan-21 14:26 33.893312 -116.651997 280 8230ft 137kts
05-Jan-21 14:27 33.909114 -116.705771 296 8346ft 191kts
05-Jan-21 14:28 33.912023 -116.769821 264 8344ft 197kts
05-Jan-21 14:29 33.910892 -116.833461 270 8342ft 179kts
05-Jan-21 14:29 33.911500 -116.882540 270 8344ft 174kts
05-Jan-21 14:31 33.912321 -116.950375 270 8344ft 173kts
05-Jan-21 14:32 33.913034 -117.008430 270 8344ft 173kts
05-Jan-21 14:33 33.913733 -117.066053 270 8372ft 172kts
05-Jan-21 14:33 33.914277 -117.114238 270 8371ft 173kts
05-Jan-21 14:34 33.914920 -117.172269 270 8371ft 173kts
05-Jan-21 14:36 33.915624 -117.239868 270 8371ft 173kts
05-Jan-21 14:36 33.916110 -117.288274 270 8371ft 173kts
05-Jan-21 14:37 33.916673 -117.346199 270 8371ft 173kts
05-Jan-21 14:38 33.917220 -117.404121 270 8371ft 172kts
05-Jan-21 14:39 33.917724 -117.461973 270 8371ft 170kts
05-Jan-21 14:40 33.918283 -117.518338 270 8371ft 167kts
05-Jan-21 14:41 33.919124 -117.574060 272 8371ft 166kts
05-Jan-21 14:42 33.920468 -117.630275 271 8209ft 174kts
05-Jan-21 14:43 33.921507 -117.691130 270 7515ft 184kts
05-Jan-21 14:44 33.922633 -117.753007 271 6815ft 184kts
05-Jan-21 14:45 33.907419 -117.807928 230 6116ft 183kts
05-Jan-21 14:46 33.882166 -117.859932 253 5416ft 182kts
05-Jan-21 14:47 33.876889 -117.919164 278 4715ft 180kts
05-Jan-21 14:48 33.879417 -117.979262 270 4015ft 179kts
05-Jan-21 14:49 33.878700 -118.038824 269 3391ft 176kts
05-Jan-21 14:50 33.877854 -118.097704 269 2789ft 175kts
05-Jan-21 14:51 33.877067 -118.155395 269 2371ft 166kts
05-Jan-21 14:52 33.876710 -118.209263 267 2371ft 158kts
05-Jan-21 14:53 33.874464 -118.261900 267 2371ft 157kts
05-Jan-21 14:54 33.879338 -118.308958 335 2670ft 144kts
05-Jan-21 14:55 33.920944 -118.311650 2 1762ft 133kts
05-Jan-21 14:56 33.925832 -118.336959 244 1102ft 81kts
05-Jan-21 14:57 33.910060 -118.331553 85 660ft 92kts
05-Jan-21 14:58 33.911381 -118.300549 41 1202ft 93kts
05-Jan-21 14:59 33.923446 -118.318545 266 664ft 94kts
05-Jan-21 15:00 33.922478 -118.339890 213 66ft 14kts
05-Jan-21 15:01 33.922212 -118.339949 189 66ft 0kts
05-Jan-21 15:02 33.922077 -118.338810 86 65ft 0kts
05-Jan-21 15:03 33.922460 -118.333130 83 65ft 16kts
05-Jan-21 15:04 33.922160 -118.330174 37 64ft 0kts
05-Jan-21 15:05 33.922160 -118.330174 37 64ft 0kts
05-Jan-21 15:06 33.922160 -118.330174 37 64ft 0kts
05-Jan-21 15:07 33.922160 -118.330174 37 64ft 0kts
05-Jan-21 15:08 33.922160 -118.330174 37 64ft 0kts
05-Jan-21 15:09 33.922160 -118.330174 37 64ft 0kts
05-Jan-21 15:10 33.922160 -118.330174 37 64ft 0kts
05-Jan-21 15:11 33.922160 -118.330174 37 64ft 0kts

Navigation Log

Ident Type
Flight plan parsing failed, navigation log unavailable